Time;durP1;ratioP1;P1;durP2;ratioP2;P2;SDS_P1;SDS_P2;PMS_P1;PMS_P2;Temp;Humidity;BMP_temperature;BMP_pressure;BME280_temperature;BME280_humidity;BME280_pressure;Samples;Min_cycle;Max_cycle;Signal;HPM_P1;HPM_P2
2021/06/17 00:01:40;;;;;;;11.82;10.55;;;;;;;;;;5113970;28;20035;-71
2021/06/17 00:04:06;;;;;;;10.23;9.23;;;;;;;;;;5113731;28;20024;-72
2021/06/17 00:06:32;;;;;;;11.88;10.65;;;;;;;;;;5113666;28;20115;-72
2021/06/17 00:08:58;;;;;;;11.57;10.38;;;;;;;;;;5113543;28;20480;-72
2021/06/17 00:11:24;;;;;;;9.70;8.80;;;;;;;;;;5113755;28;20414;-71
2021/06/17 00:13:51;;;;;;;11.15;10.00;;;;;;;;;;5113788;28;20019;-72
2021/06/17 00:16:17;;;;;;;17.90;9.75;;;;;;;;;;5113798;28;20027;-72
2021/06/17 00:18:43;;;;;;;9.90;8.60;;;;;;;;;;5113482;28;20546;-72
2021/06/17 00:21:09;;;;;;;10.48;9.48;;;;;;;;;;5113520;28;20072;-72
2021/06/17 00:23:35;;;;;;;17.70;9.55;;;;;;;;;;5113565;28;20369;-73
2021/06/17 00:26:02;;;;;;;13.55;8.75;;;;;;;;;;5113620;28;20035;-72
2021/06/17 00:28:28;;;;;;;9.15;8.00;;;;;;;;;;5113669;28;20465;-72
2021/06/17 00:30:54;;;;;;;10.25;8.95;;;;;;;;;;5115944;28;20102;-73
2021/06/17 00:33:20;;;;;;;9.80;8.77;;;;;;;;;;5117552;28;20026;-73
2021/06/17 00:35:47;;;;;;;11.60;9.88;;;;;;;;;;5117345;28;20062;-73
2021/06/17 00:38:13;;;;;;;12.10;8.52;;;;;;;;;;5117205;28;20102;-73
2021/06/17 00:40:39;;;;;;;8.73;7.85;;;;;;;;;;5117530;28;20024;-73
2021/06/17 00:43:05;;;;;;;9.68;8.13;;;;;;;;;;5117342;28;20024;-73
2021/06/17 00:45:32;;;;;;;8.93;7.93;;;;;;;;;;5117079;28;20476;-73
2021/06/17 00:47:58;;;;;;;8.40;7.60;;;;;;;;;;5117639;28;20024;-73
2021/06/17 00:50:25;;;;;;;8.65;7.85;;;;;;;;;;5117291;28;20047;-73
2021/06/17 00:52:51;;;;;;;8.32;7.53;;;;;;;;;;5116927;28;20023;-74
2021/06/17 00:55:17;;;;;;;11.68;8.50;;;;;;;;;;5117034;28;20032;-73
2021/06/17 00:57:43;;;;;;;9.35;8.25;;;;;;;;;;5117280;28;20031;-73
2021/06/17 01:00:10;;;;;;;7.97;7.18;;;;;;;;;;5117340;28;20504;-74
2021/06/17 01:02:36;;;;;;;8.98;8.07;;;;;;;;;;5116975;28;20053;-73
2021/06/17 01:05:03;;;;;;;9.88;7.18;;;;;;;;;;5116443;28;20490;-72
2021/06/17 01:07:31;;;;;;;8.35;7.55;;;;;;;;;;5116537;28;20028;-72
2021/06/17 01:10:06;;;;;;;8.73;7.60;;;;;;;;;;5117264;28;20020;-72
2021/06/17 01:12:37;;;;;;;8.10;7.35;;;;;;;;;;5116960;28;20023;-71
2021/06/17 01:15:04;;;;;;;8.10;7.25;;;;;;;;;;5116422;28;20019;-72
2021/06/17 01:17:32;;;;;;;8.68;7.95;;;;;;;;;;5116823;28;20027;-72
2021/06/17 01:20:04;;;;;;;11.25;7.72;;;;;;;;;;5116283;28;20031;-72
2021/06/17 01:22:39;;;;;;;7.63;6.88;;;;;;;;;;5116792;28;20034;-71
2021/06/17 01:25:10;;;;;;;14.88;7.40;;;;;;;;;;5117062;28;20039;-72
2021/06/17 01:27:39;;;;;;;7.30;6.70;;;;;;;;;;5116825;28;20057;-72
2021/06/17 01:30:09;;;;;;;8.05;7.35;;;;;;;;;;5116074;28;20035;-71
2021/06/17 01:32:35;;;;;;;12.20;7.35;;;;;;;;;;5116289;28;20031;-72
2021/06/17 01:35:02;;;;;;;10.20;6.90;;;;;;;;;;5116131;28;20023;-72
2021/06/17 01:37:28;;;;;;;7.93;6.80;;;;;;;;;;5116438;28;20055;-72
2021/06/17 01:39:54;;;;;;;7.57;6.88;;;;;;;;;;5116568;28;20024;-72
2021/06/17 01:42:21;;;;;;;7.63;7.00;;;;;;;;;;5115999;28;20019;-72
2021/06/17 01:44:47;;;;;;;11.45;7.85;;;;;;;;;;5115683;28;20031;-72
2021/06/17 01:47:13;;;;;;;11.50;7.72;;;;;;;;;;5115986;28;20457;-72
2021/06/17 01:49:39;;;;;;;7.35;6.53;;;;;;;;;;5116208;28;20401;-72
2021/06/17 01:52:06;;;;;;;9.50;7.45;;;;;;;;;;5115987;28;20024;-72
2021/06/17 01:54:32;;;;;;;7.65;6.70;;;;;;;;;;5115886;28;20030;-72
2021/06/17 01:56:58;;;;;;;7.03;6.32;;;;;;;;;;5115780;28;20031;-72
2021/06/17 01:59:24;;;;;;;8.75;7.43;;;;;;;;;;5115883;28;20367;-72
2021/06/17 02:01:51;;;;;;;9.95;7.38;;;;;;;;;;5115739;28;20069;-72
2021/06/17 02:04:19;;;;;;;10.75;7.03;;;;;;;;;;5115656;28;20028;-72
2021/06/17 02:06:45;;;;;;;17.25;7.57;;;;;;;;;;5115536;28;20235;-72
2021/06/17 02:09:11;;;;;;;9.18;6.90;;;;;;;;;;5115602;28;20026;-72
2021/06/17 02:11:37;;;;;;;9.90;7.70;;;;;;;;;;5115654;28;20118;-72
2021/06/17 02:14:04;;;;;;;10.63;7.82;;;;;;;;;;5115382;28;20032;-72
2021/06/17 02:16:30;;;;;;;7.85;7.05;;;;;;;;;;5115402;28;20522;-72
2021/06/17 02:18:56;;;;;;;17.00;6.97;;;;;;;;;;5114907;28;20423;-72
2021/06/17 02:21:22;;;;;;;9.18;6.85;;;;;;;;;;5116039;28;20121;-72
2021/06/17 02:23:49;;;;;;;9.82;5.93;;;;;;;;;;5115619;28;20024;-72
2021/06/17 02:26:15;;;;;;;7.63;7.00;;;;;;;;;;5115276;28;20423;-72
2021/06/17 02:28:42;;;;;;;10.55;6.53;;;;;;;;;;5115583;28;20034;-73
2021/06/17 02:31:08;;;;;;;8.52;7.10;;;;;;;;;;5115127;28;20089;-73
2021/06/17 02:33:35;;;;;;;7.53;6.25;;;;;;;;;;5115240;28;20023;-72
2021/06/17 02:36:01;;;;;;;10.10;6.53;;;;;;;;;;5115133;28;20057;-72
2021/06/17 02:38:29;;;;;;;7.10;6.28;;;;;;;;;;5114998;28;20035;-72
2021/06/17 02:40:57;;;;;;;7.38;6.60;;;;;;;;;;5114879;28;20028;-72
2021/06/17 02:43:23;;;;;;;8.88;6.30;;;;;;;;;;5114781;28;20491;-72
2021/06/17 02:45:49;;;;;;;7.20;6.05;;;;;;;;;;5114776;28;20389;-72
2021/06/17 02:48:16;;;;;;;10.10;7.25;;;;;;;;;;5115255;28;20020;-72
2021/06/17 02:50:42;;;;;;;8.80;6.10;;;;;;;;;;5114253;28;20103;-72
2021/06/17 02:53:08;;;;;;;7.05;6.45;;;;;;;;;;5114192;28;20481;-72
2021/06/17 02:55:34;;;;;;;9.50;7.78;;;;;;;;;;5114830;28;20106;-72
2021/06/17 02:58:05;;;;;;;7.47;6.60;;;;;;;;;;5114968;28;20483;-72
2021/06/17 03:00:32;;;;;;;9.85;6.32;;;;;;;;;;5114618;28;20020;-72
2021/06/17 03:03:01;;;;;;;8.93;7.28;;;;;;;;;;5114524;28;20027;-72
2021/06/17 03:05:29;;;;;;;6.53;5.88;;;;;;;;;;5114470;28;20376;-72
2021/06/17 03:07:58;;;;;;;21.60;6.40;;;;;;;;;;5115030;28;20024;-74
2021/06/17 03:10:24;;;;;;;12.18;6.50;;;;;;;;;;5114482;28;20518;-74
2021/06/17 03:12:50;;;;;;;7.55;6.80;;;;;;;;;;5114224;28;20031;-74
2021/06/17 03:15:16;;;;;;;7.28;6.57;;;;;;;;;;5114322;28;20023;-74
2021/06/17 03:17:43;;;;;;;17.70;8.55;;;;;;;;;;5114542;28;20020;-73
2021/06/17 03:20:09;;;;;;;59.33;17.95;;;;;;;;;;5113606;28;20027;-74
2021/06/17 03:22:36;;;;;;;39.00;17.35;;;;;;;;;;5114361;28;20070;-72
2021/06/17 03:25:05;;;;;;;33.72;14.48;;;;;;;;;;5114047;28;20034;-73
2021/06/17 03:27:31;;;;;;;22.98;13.45;;;;;;;;;;5114003;28;20032;-73
2021/06/17 03:29:57;;;;;;;19.80;11.63;;;;;;;;;;5113913;28;20370;-72
2021/06/17 03:32:26;;;;;;;26.33;12.13;;;;;;;;;;5114243;28;20106;-72
2021/06/17 03:34:52;;;;;;;21.25;10.52;;;;;;;;;;5113943;28;20023;-72
2021/06/17 03:37:20;;;;;;;21.27;10.75;;;;;;;;;;5114058;28;20053;-72
2021/06/17 03:39:46;;;;;;;13.48;9.23;;;;;;;;;;5114115;28;20045;-72
2021/06/17 03:42:12;;;;;;;23.15;11.07;;;;;;;;;;5113977;28;20031;-73
2021/06/17 03:44:38;;;;;;;18.38;9.95;;;;;;;;;;5113686;28;20500;-73
2021/06/17 03:47:04;;;;;;;16.27;8.63;;;;;;;;;;5113739;28;20076;-75
2021/06/17 03:49:30;;;;;;;16.35;8.88;;;;;;;;;;5113949;28;20051;-74
2021/06/17 03:51:57;;;;;;;16.60;9.43;;;;;;;;;;5113938;28;20461;-72
2021/06/17 03:54:24;;;;;;;12.90;8.32;;;;;;;;;;5113552;28;20039;-72
2021/06/17 03:56:58;;;;;;;17.00;9.25;;;;;;;;;;5113473;28;20026;-72
2021/06/17 03:59:25;;;;;;;11.20;8.63;;;;;;;;;;5113761;28;20027;-73
2021/06/17 04:01:51;;;;;;;15.40;8.70;;;;;;;;;;5113911;28;20483;-74
2021/06/17 04:04:17;;;;;;;10.38;7.95;;;;;;;;;;5115486;28;20027;-72
2021/06/17 04:06:43;;;;;;;10.48;6.07;;;;;;;;;;5117750;28;20054;-72
2021/06/17 04:09:09;;;;;;;10.73;8.43;;;;;;;;;;5118393;28;20028;-74
2021/06/17 04:11:35;;;;;;;11.10;8.00;;;;;;;;;;5117829;28;20031;-74
2021/06/17 04:14:01;;;;;;;11.63;7.63;;;;;;;;;;5117926;28;20027;-73
2021/06/17 04:16:27;;;;;;;8.52;7.57;;;;;;;;;;5118128;28;20024;-72
2021/06/17 04:18:54;;;;;;;11.15;8.07;;;;;;;;;;5117609;28;20099;-72
2021/06/17 04:21:20;;;;;;;12.98;8.00;;;;;;;;;;5117647;28;20070;-73
2021/06/17 04:23:47;;;;;;;9.10;7.00;;;;;;;;;;5117510;28;20072;-72
2021/06/17 04:26:16;;;;;;;8.23;7.30;;;;;;;;;;5117545;28;20156;-73
2021/06/17 04:28:42;;;;;;;8.90;7.45;;;;;;;;;;5117533;28;20028;-73
2021/06/17 04:31:08;;;;;;;8.32;7.20;;;;;;;;;;5117623;28;20361;-73
2021/06/17 04:33:35;;;;;;;9.98;6.90;;;;;;;;;;5117898;28;20026;-74
2021/06/17 04:36:02;;;;;;;11.70;7.28;;;;;;;;;;5117790;28;20027;-73
2021/06/17 04:38:28;;;;;;;16.38;8.23;;;;;;;;;;5117498;28;20016;-74
2021/06/17 04:40:54;;;;;;;22.15;7.68;;;;;;;;;;5116882;28;20475;-71
2021/06/17 04:43:22;;;;;;;7.38;6.60;;;;;;;;;;5118348;28;20032;-70
2021/06/17 04:45:48;;;;;;;10.95;6.60;;;;;;;;;;5117699;28;20039;-70
2021/06/17 04:48:14;;;;;;;12.60;7.25;;;;;;;;;;5118091;28;20028;-71
2021/06/17 04:50:40;;;;;;;7.70;6.50;;;;;;;;;;5117022;28;20508;-73
2021/06/17 04:53:08;;;;;;;8.48;6.93;;;;;;;;;;5117451;28;20132;-71
2021/06/17 04:55:34;;;;;;;9.30;6.60;;;;;;;;;;5117414;28;20063;-70
2021/06/17 04:58:01;;;;;;;11.38;6.97;;;;;;;;;;5117865;28;20099;-70
2021/06/17 05:00:27;;;;;;;8.75;7.20;;;;;;;;;;5117566;28;20015;-71
2021/06/17 05:02:53;;;;;;;11.20;7.80;;;;;;;;;;5117386;28;20028;-72
2021/06/17 05:05:19;;;;;;;9.65;7.22;;;;;;;;;;5117390;28;20466;-71
2021/06/17 05:13:18;;;;;;;15.45;7.28;;;;;;;;;;5102110;28;20034;-71
2021/06/17 05:15:44;;;;;;;7.28;6.65;;;;;;;;;;5116153;28;20027;-71
2021/06/17 05:18:10;;;;;;;7.93;7.10;;;;;;;;;;5117054;28;20034;-71
2021/06/17 05:20:37;;;;;;;12.23;7.13;;;;;;;;;;5116438;28;20059;-71
2021/06/17 05:23:03;;;;;;;8.00;6.65;;;;;;;;;;5116412;28;20483;-71
2021/06/17 05:25:29;;;;;;;10.35;7.28;;;;;;;;;;5117014;28;20504;-71
2021/06/17 05:27:55;;;;;;;8.60;7.53;;;;;;;;;;5117087;28;20068;-71
2021/06/17 05:30:21;;;;;;;7.30;6.47;;;;;;;;;;5116847;28;20022;-70
2021/06/17 05:32:47;;;;;;;12.88;6.85;;;;;;;;;;5116355;28;20027;-71
2021/06/17 05:35:14;;;;;;;6.72;5.97;;;;;;;;;;5116434;28;20031;-71
2021/06/17 05:37:40;;;;;;;8.80;7.10;;;;;;;;;;5117229;28;20019;-71
2021/06/17 05:40:06;;;;;;;7.10;6.18;;;;;;;;;;5116230;28;20421;-71
2021/06/17 05:42:32;;;;;;;5.60;5.03;;;;;;;;;;5116354;28;20115;-71
2021/06/17 05:44:58;;;;;;;8.55;6.35;;;;;;;;;;5116552;28;20457;-73
2021/06/17 05:47:24;;;;;;;8.45;6.20;;;;;;;;;;5116936;28;20044;-75
2021/06/17 05:49:50;;;;;;;9.30;6.38;;;;;;;;;;5113714;28;20047;-73
2021/06/17 05:52:16;;;;;;;5.93;5.30;;;;;;;;;;5114859;28;20024;-73
2021/06/17 05:54:43;;;;;;;12.43;6.78;;;;;;;;;;5115109;28;20070;-73
2021/06/17 05:57:10;;;;;;;8.57;6.90;;;;;;;;;;5115642;28;20024;-74
2021/06/17 05:59:36;;;;;;;7.10;6.10;;;;;;;;;;5115347;28;20023;-73
2021/06/17 06:02:03;;;;;;;11.70;6.40;;;;;;;;;;5114941;28;20032;-71
2021/06/17 06:04:29;;;;;;;20.67;7.03;;;;;;;;;;5114473;28;20046;-71
2021/06/17 06:06:55;;;;;;;9.38;6.63;;;;;;;;;;5108284;28;20054;-72
2021/06/17 06:09:23;;;;;;;8.68;6.38;;;;;;;;;;5102795;28;20020;-71
2021/06/17 06:11:49;;;;;;;14.02;6.18;;;;;;;;;;5100761;28;20358;-72
2021/06/17 06:14:15;;;;;;;6.72;6.05;;;;;;;;;;5094730;28;20035;-72
2021/06/17 06:16:42;;;;;;;7.18;6.38;;;;;;;;;;5094161;28;20047;-72
2021/06/17 06:19:09;;;;;;;8.50;6.53;;;;;;;;;;5094485;28;20071;-72
2021/06/17 06:21:35;;;;;;;8.75;6.25;;;;;;;;;;5094438;28;20031;-71
2021/06/17 06:24:01;;;;;;;7.55;6.07;;;;;;;;;;5094707;28;20073;-72
2021/06/17 06:26:27;;;;;;;6.40;5.80;;;;;;;;;;5094340;28;20036;-71
2021/06/17 06:28:53;;;;;;;9.80;6.75;;;;;;;;;;5093501;28;20043;-72
2021/06/17 06:31:19;;;;;;;7.13;6.20;;;;;;;;;;5094822;28;20040;-71
2021/06/17 06:33:45;;;;;;;9.07;5.93;;;;;;;;;;5094251;28;20051;-72
2021/06/17 06:36:11;;;;;;;6.72;5.22;;;;;;;;;;5094565;28;20022;-72
2021/06/17 06:38:37;;;;;;;9.38;6.22;;;;;;;;;;5093979;28;20020;-72
2021/06/17 06:41:03;;;;;;;8.60;5.15;;;;;;;;;;5093628;28;20031;-72
2021/06/17 06:43:29;;;;;;;6.90;6.03;;;;;;;;;;5094373;28;20374;-72
2021/06/17 06:45:56;;;;;;;11.18;5.60;;;;;;;;;;5093579;28;20036;-73
2021/06/17 06:48:22;;;;;;;6.00;5.35;;;;;;;;;;5093937;28;20028;-72
2021/06/17 06:50:48;;;;;;;8.90;5.88;;;;;;;;;;5093338;28;20054;-72
2021/06/17 06:53:14;;;;;;;8.70;6.22;;;;;;;;;;5093712;28;20047;-73
2021/06/17 06:55:40;;;;;;;6.95;5.45;;;;;;;;;;5093279;28;20028;-73
2021/06/17 06:58:06;;;;;;;6.45;5.85;;;;;;;;;;5094331;28;20378;-72
2021/06/17 07:00:33;;;;;;;10.32;6.43;;;;;;;;;;5094150;28;20020;-73
2021/06/17 07:02:59;;;;;;;6.20;5.25;;;;;;;;;;5093537;28;20020;-73
2021/06/17 07:05:26;;;;;;;15.57;5.75;;;;;;;;;;5091980;28;20394;-75
2021/06/17 07:07:52;;;;;;;10.90;5.40;;;;;;;;;;5093551;28;20052;-73
2021/06/17 07:10:18;;;;;;;9.32;5.20;;;;;;;;;;5094821;28;20038;-74
2021/06/17 07:12:45;;;;;;;11.48;5.78;;;;;;;;;;5093320;28;20051;-72
2021/06/17 07:15:12;;;;;;;11.10;5.97;;;;;;;;;;5093733;28;20039;-74
2021/06/17 07:17:44;;;;;;;14.82;6.35;;;;;;;;;;5093455;28;20050;-75
2021/06/17 07:20:11;;;;;;;7.32;5.85;;;;;;;;;;5094046;28;20016;-73
2021/06/17 07:22:38;;;;;;;8.73;5.72;;;;;;;;;;5095474;28;20035;-75
2021/06/17 07:25:04;;;;;;;6.60;6.00;;;;;;;;;;5095504;28;20093;-73
2021/06/17 07:27:31;;;;;;;10.45;6.45;;;;;;;;;;5096834;28;20077;-74
2021/06/17 07:29:57;;;;;;;7.22;5.65;;;;;;;;;;5094738;28;20485;-71
2021/06/17 07:32:23;;;;;;;9.35;6.38;;;;;;;;;;5094910;28;20107;-73
2021/06/17 07:34:50;;;;;;;10.05;6.28;;;;;;;;;;5094111;28;20050;-73
2021/06/17 07:37:16;;;;;;;5.95;5.10;;;;;;;;;;5103161;28;20470;-74
2021/06/17 07:39:42;;;;;;;6.22;5.60;;;;;;;;;;5114795;28;20024;-72
2021/06/17 07:42:10;;;;;;;10.48;6.25;;;;;;;;;;5114029;28;20477;-71
2021/06/17 07:44:36;;;;;;;7.82;6.30;;;;;;;;;;5114272;28;20032;-73
2021/06/17 07:47:02;;;;;;;11.75;5.95;;;;;;;;;;5102412;28;20571;-74
2021/06/17 07:49:28;;;;;;;6.28;5.68;;;;;;;;;;5096455;28;20405;-72
2021/06/17 07:51:54;;;;;;;9.90;6.05;;;;;;;;;;5094411;28;20016;-71
2021/06/17 07:54:21;;;;;;;16.35;6.63;;;;;;;;;;5093262;28;20031;-72
2021/06/17 07:56:48;;;;;;;11.82;5.72;;;;;;;;;;5093436;28;20028;-71
2021/06/17 07:59:18;;;;;;;7.32;5.15;;;;;;;;;;5093089;28;20020;-72
2021/06/17 08:01:44;;;;;;;8.35;5.57;;;;;;;;;;5095269;28;20020;-74
2021/06/17 08:04:10;;;;;;;6.50;4.93;;;;;;;;;;5094700;28;20127;-73
2021/06/17 08:06:36;;;;;;;6.35;5.75;;;;;;;;;;5093630;28;20034;-72
2021/06/17 08:09:03;;;;;;;10.05;5.40;;;;;;;;;;5094053;28;20033;-72
2021/06/17 08:11:29;;;;;;;8.68;5.13;;;;;;;;;;5093731;28;20024;-72
2021/06/17 08:13:56;;;;;;;7.45;5.45;;;;;;;;;;5093074;28;20020;-74
2021/06/17 08:16:22;;;;;;;15.75;6.13;;;;;;;;;;5093283;28;20062;-71
2021/06/17 08:18:50;;;;;;;14.13;5.40;;;;;;;;;;5092865;28;20024;-73
2021/06/17 08:21:16;;;;;;;6.63;5.55;;;;;;;;;;5113485;28;20076;-73
2021/06/17 08:23:42;;;;;;;14.45;5.13;;;;;;;;;;5111867;28;20169;-72
2021/06/17 08:26:08;;;;;;;12.23;5.45;;;;;;;;;;5114631;28;20036;-72
2021/06/17 08:28:34;;;;;;;7.72;5.15;;;;;;;;;;5113557;28;20384;-72
2021/06/17 08:31:00;;;;;;;7.30;4.70;;;;;;;;;;5112787;28;20465;-72
2021/06/17 08:33:27;;;;;;;9.93;5.07;;;;;;;;;;5108622;28;20031;-73
2021/06/17 08:35:53;;;;;;;6.95;5.32;;;;;;;;;;5106579;28;20028;-71
2021/06/17 08:38:20;;;;;;;5.28;4.78;;;;;;;;;;5113470;28;20024;-72
2021/06/17 08:40:46;;;;;;;6.18;5.05;;;;;;;;;;5112759;28;20016;-73
2021/06/17 08:43:12;;;;;;;10.52;4.97;;;;;;;;;;5113125;28;20106;-73
2021/06/17 08:45:39;;;;;;;5.30;4.80;;;;;;;;;;5113010;28;20164;-72
2021/06/17 08:48:05;;;;;;;10.48;4.90;;;;;;;;;;5113282;28;20028;-72
2021/06/17 08:50:31;;;;;;;6.75;5.00;;;;;;;;;;5112332;28;20055;-72
2021/06/17 08:52:57;;;;;;;8.40;5.13;;;;;;;;;;5105576;28;20016;-73
2021/06/17 08:55:24;;;;;;;9.48;4.40;;;;;;;;;;5107316;28;20020;-72
2021/06/17 08:57:51;;;;;;;6.80;4.38;;;;;;;;;;5107321;28;20034;-71
2021/06/17 09:00:31;;;;;;;6.07;5.47;;;;;;;;;;5116861;28;20027;-69
2021/06/17 09:02:59;;;;;;;8.23;5.20;;;;;;;;;;5116135;28;20016;-70
2021/06/17 09:05:25;;;;;;;7.55;4.60;;;;;;;;;;5116831;28;20405;-70
2021/06/17 09:07:52;;;;;;;5.32;4.70;;;;;;;;;;5116730;28;20429;-68
2021/06/17 09:10:18;;;;;;;6.20;4.75;;;;;;;;;;5116145;28;20038;-69
2021/06/17 09:12:44;;;;;;;6.50;5.35;;;;;;;;;;5115954;28;20392;-70
2021/06/17 09:15:11;;;;;;;13.15;5.05;;;;;;;;;;5117256;28;20081;-71
2021/06/17 09:17:37;;;;;;;5.32;4.65;;;;;;;;;;5116689;28;20392;-71
2021/06/17 09:20:03;;;;;;;6.22;5.18;;;;;;;;;;5114876;28;20024;-71
2021/06/17 09:22:29;;;;;;;7.20;5.03;;;;;;;;;;5104685;28;20477;-71
2021/06/17 09:24:56;;;;;;;7.95;5.32;;;;;;;;;;5108816;28;20046;-71
2021/06/17 09:27:27;;;;;;;11.43;4.85;;;;;;;;;;5116082;28;20027;-70
2021/06/17 09:29:54;;;;;;;6.80;5.03;;;;;;;;;;5116655;28;20023;-71
2021/06/17 09:32:21;;;;;;;10.65;5.15;;;;;;;;;;5116117;28;20491;-72
2021/06/17 09:34:48;;;;;;;8.68;4.68;;;;;;;;;;5112878;28;20035;-74
2021/06/17 09:37:29;;;;;;;6.95;4.97;;;;;;;;;;5108774;28;20020;-73
2021/06/17 09:39:55;;;;;;;;;;;;;;;;;;5100606;28;20105;-72
2021/06/17 09:42:22;;;;;;;5.88;5.15;;;;;;;;;;5096523;28;20000;-72
2021/06/17 09:44:48;;;;;;;5.70;5.20;;;;;;;;;;5113033;28;20036;-71
2021/06/17 09:47:15;;;;;;;8.23;5.22;;;;;;;;;;5115812;28;20036;-73
2021/06/17 09:49:42;;;;;;;8.48;5.00;;;;;;;;;;5116091;28;20044;-71
2021/06/17 09:52:08;;;;;;;7.50;5.68;;;;;;;;;;5115756;28;20023;-72
2021/06/17 09:54:36;;;;;;;8.60;5.05;;;;;;;;;;5115112;28;20031;-71
2021/06/17 09:57:04;;;;;;;12.20;9.05;;;;;;;;;;5115185;28;20031;-71
2021/06/17 09:59:33;;;;;;;9.93;6.68;;;;;;;;;;5116160;28;20030;-71
2021/06/17 10:02:00;;;;;;;12.20;6.32;;;;;;;;;;5115360;28;20024;-72
2021/06/17 10:04:27;;;;;;;15.73;6.75;;;;;;;;;;5115479;28;20430;-72
2021/06/17 10:06:53;;;;;;;18.45;7.13;;;;;;;;;;5114745;28;20392;-72
2021/06/17 10:09:19;;;;;;;13.93;6.03;;;;;;;;;;5115601;28;20105;-71
2021/06/17 10:11:45;;;;;;;10.32;6.35;;;;;;;;;;5115536;28;20519;-73
2021/06/17 10:14:11;;;;;;;6.45;5.75;;;;;;;;;;5115130;28;20028;-72
2021/06/17 10:16:39;;;;;;;12.27;6.82;;;;;;;;;;5115153;28;20020;-71
2021/06/17 10:19:06;;;;;;;8.13;6.70;;;;;;;;;;5115487;28;20019;-72
2021/06/17 10:21:32;;;;;;;9.23;6.57;;;;;;;;;;5114697;28;20024;-71
2021/06/17 10:23:58;;;;;;;8.20;7.00;;;;;;;;;;5115450;28;20023;-71
2021/06/17 10:26:26;;;;;;;13.48;7.07;;;;;;;;;;5115781;28;20054;-72
2021/06/17 10:28:53;;;;;;;8.38;5.97;;;;;;;;;;5115029;28;20028;-72
2021/06/17 10:31:39;;;;;;;11.75;6.63;;;;;;;;;;5115702;28;20027;-72
2021/06/17 10:34:26;;;;;;;7.65;6.85;;;;;;;;;;5100119;28;20464;-72
2021/06/17 10:37:12;;;;;;;16.98;7.40;;;;;;;;;;5099789;28;20016;-72
2021/06/17 10:39:55;;;;;;;7.85;7.15;;;;;;;;;;5100122;28;20461;-72
2021/06/17 10:42:37;;;;;;;9.45;6.88;;;;;;;;;;5111371;28;20118;-72
2021/06/17 10:45:23;;;;;;;22.92;7.47;;;;;;;;;;5094018;28;20032;-71
2021/06/17 10:47:51;;;;;;;20.92;8.20;;;;;;;;;;5079033;28;20035;-71
2021/06/17 10:50:20;;;;;;;10.15;7.55;;;;;;;;;;5094326;28;20043;-71
2021/06/17 10:52:46;;;;;;;10.57;7.75;;;;;;;;;;5093807;28;20016;-72
2021/06/17 10:55:13;;;;;;;12.43;7.40;;;;;;;;;;5094278;28;20085;-72
2021/06/17 10:57:50;;;;;;;9.13;6.40;;;;;;;;;;5094118;28;20111;-72
2021/06/17 11:00:36;;;;;;;6.97;6.20;;;;;;;;;;5094510;28;20077;-71
2021/06/17 11:03:22;;;;;;;12.40;7.25;;;;;;;;;;5079800;28;20466;-72
2021/06/17 11:05:52;;;;;;;18.40;7.03;;;;;;;;;;5079794;28;20093;-72
2021/06/17 11:08:22;;;;;;;9.23;6.43;;;;;;;;;;5094747;28;20020;-73
2021/06/17 11:10:50;;;;;;;9.90;6.90;;;;;;;;;;5095166;28;20036;-76
2021/06/17 11:13:37;;;;;;;6.68;5.20;;;;;;;;;;5094343;28;20020;-73
2021/06/17 11:16:08;;;;;;;9.05;5.85;;;;;;;;;;5079424;28;20401;-71
2021/06/17 11:18:55;;;;;;;8.07;5.97;;;;;;;;;;5093538;28;20020;-73
2021/06/17 11:21:38;;;;;;;14.13;6.10;;;;;;;;;;5095355;28;20366;-72
2021/06/17 11:24:24;;;;;;;7.32;5.38;;;;;;;;;;5095076;28;20517;-73
2021/06/17 11:26:50;;;;;;;6.15;5.03;;;;;;;;;;5080439;28;20039;-73
2021/06/17 11:29:19;;;;;;;7.18;5.22;;;;;;;;;;5095211;28;20069;-73
2021/06/17 11:31:46;;;;;;;8.35;5.88;;;;;;;;;;5095893;28;20114;-72
2021/06/17 11:34:12;;;;;;;7.72;5.18;;;;;;;;;;5095693;28;20457;-72
2021/06/17 11:36:54;;;;;;;17.13;5.63;;;;;;;;;;5093745;28;20085;-72
2021/06/17 11:39:22;;;;;;;7.13;5.00;;;;;;;;;;5094313;28;20028;-70
2021/06/17 11:41:48;;;;;;;5.22;4.70;;;;;;;;;;5094045;28;20161;-71
2021/06/17 11:44:16;;;;;;;9.45;4.78;;;;;;;;;;5093310;28;20032;-71
2021/06/17 11:46:45;;;;;;;12.38;5.18;;;;;;;;;;5093570;28;20024;-69
2021/06/17 11:49:12;;;;;;;7.20;5.97;;;;;;;;;;5092607;28;20083;-69
2021/06/17 11:51:40;;;;;;;6.03;4.78;;;;;;;;;;5092701;28;20104;-69
2021/06/17 11:54:06;;;;;;;6.95;5.35;;;;;;;;;;5093245;28;20115;-69
2021/06/17 11:56:33;;;;;;;8.50;4.78;;;;;;;;;;5093111;28;20028;-71
2021/06/17 11:59:19;;;;;;;5.47;4.97;;;;;;;;;;5092821;28;20032;-69
2021/06/17 12:02:04;;;;;;;6.25;5.65;;;;;;;;;;5078097;28;20141;-69
2021/06/17 12:04:52;;;;;;;5.25;4.75;;;;;;;;;;5078352;28;20028;-69
2021/06/17 12:07:23;;;;;;;4.82;4.40;;;;;;;;;;5093131;28;20035;-69
2021/06/17 12:09:49;;;;;;;6.03;4.57;;;;;;;;;;5093013;28;20043;-69
2021/06/17 12:12:16;;;;;;;6.15;4.03;;;;;;;;;;5092596;28;20016;-69
2021/06/17 12:14:44;;;;;;;5.28;4.25;;;;;;;;;;5092872;28;20032;-69
2021/06/17 12:17:10;;;;;;;4.53;4.05;;;;;;;;;;5092854;28;20069;-69
2021/06/17 12:19:36;;;;;;;9.30;5.13;;;;;;;;;;5093328;28;20020;-69
2021/06/17 12:22:04;;;;;;;4.70;4.20;;;;;;;;;;5092935;28;20028;-68
2021/06/17 12:24:30;;;;;;;4.60;4.00;;;;;;;;;;5092863;28;20381;-69
2021/06/17 12:26:56;;;;;;;10.50;5.30;;;;;;;;;;5095212;28;20036;-69
2021/06/17 12:29:24;;;;;;;4.28;3.97;;;;;;;;;;5096973;28;20081;-69
2021/06/17 12:31:54;;;;;;;12.45;4.25;;;;;;;;;;5096567;28;20024;-69
2021/06/17 12:34:20;;;;;;;4.97;4.20;;;;;;;;;;5097110;28;20043;-69
2021/06/17 12:36:58;;;;;;;4.60;4.20;;;;;;;;;;5096540;28;20111;-71
2021/06/17 12:39:24;;;;;;;4.35;3.95;;;;;;;;;;5097416;28;20020;-71
2021/06/17 12:41:50;;;;;;;7.43;4.32;;;;;;;;;;5097276;28;20096;-71
2021/06/17 12:44:32;;;;;;;4.63;4.18;;;;;;;;;;5096845;28;20470;-71
2021/06/17 12:47:00;;;;;;;4.70;4.30;;;;;;;;;;5096668;28;20389;-71
2021/06/17 12:52:12;;;;;;;5.13;4.72;;;;;;;;;;5081604;28;20028;-70
2021/06/17 12:54:41;;;;;;;5.80;5.30;;;;;;;;;;5096963;28;20020;-70
2021/06/17 12:57:13;;;;;;;4.78;4.38;;;;;;;;;;5096989;28;20377;-70
2021/06/17 12:59:47;;;;;;;6.57;4.80;;;;;;;;;;5096807;28;20026;-70
2021/06/17 13:02:15;;;;;;;4.75;4.35;;;;;;;;;;5096579;28;20375;-70
2021/06/17 13:04:41;;;;;;;5.15;4.60;;;;;;;;;;5095698;28;20484;-72
2021/06/17 13:07:15;;;;;;;4.65;4.25;;;;;;;;;;5095802;28;20484;-70
2021/06/17 13:09:41;;;;;;;4.78;4.35;;;;;;;;;;5095786;28;20382;-69
2021/06/17 13:12:26;;;;;;;4.55;4.15;;;;;;;;;;5096408;28;20107;-69
2021/06/17 13:15:09;;;;;;;4.55;4.15;;;;;;;;;;5095807;28;20028;-69
2021/06/17 13:17:39;;;;;;;5.03;4.55;;;;;;;;;;5096213;28;20153;-69
2021/06/17 13:20:06;;;;;;;8.65;5.28;;;;;;;;;;5095763;28;20020;-72
2021/06/17 13:22:46;;;;;;;9.43;4.80;;;;;;;;;;5095683;28;20024;-75
2021/06/17 13:25:13;;;;;;;12.68;5.05;;;;;;;;;;5094214;28;20461;-73
2021/06/17 13:27:39;;;;;;;5.80;4.38;;;;;;;;;;5095889;28;20052;-73
2021/06/17 13:30:05;;;;;;;15.68;4.72;;;;;;;;;;5096825;28;20019;-73
2021/06/17 13:32:32;;;;;;;5.13;4.53;;;;;;;;;;5097029;28;20031;-72
2021/06/17 13:34:58;;;;;;;4.10;3.70;;;;;;;;;;5096679;28;20103;-73
2021/06/17 13:37:24;;;;;;;4.43;4.03;;;;;;;;;;5095407;28;20032;-73
2021/06/17 13:39:50;;;;;;;4.60;3.80;;;;;;;;;;5097260;28;20043;-73
2021/06/17 13:42:16;;;;;;;6.05;5.07;;;;;;;;;;5096957;28;20450;-73
2021/06/17 13:44:43;;;;;;;5.88;4.80;;;;;;;;;;5097048;28;20036;-74
2021/06/17 13:47:09;;;;;;;9.98;4.63;;;;;;;;;;5097096;28;20026;-73
2021/06/17 13:49:37;;;;;;;6.28;4.45;;;;;;;;;;5095747;28;20044;-75
2021/06/17 13:52:03;;;;;;;3.85;3.45;;;;;;;;;;5096916;28;20102;-73
2021/06/17 13:54:29;;;;;;;6.00;4.25;;;;;;;;;;5097384;28;20168;-72
2021/06/17 13:56:55;;;;;;;5.97;4.63;;;;;;;;;;5096647;28;20027;-74
2021/06/17 13:59:22;;;;;;;4.30;3.90;;;;;;;;;;5097156;28;20092;-72
2021/06/17 14:01:48;;;;;;;9.75;4.50;;;;;;;;;;5097565;28;20024;-74
2021/06/17 14:04:17;;;;;;;8.32;4.68;;;;;;;;;;5096314;28;20028;-73
2021/06/17 14:06:43;;;;;;;4.70;4.25;;;;;;;;;;5095346;28;20067;-73
2021/06/17 14:09:09;;;;;;;4.80;4.40;;;;;;;;;;5095363;28;20024;-76
2021/06/17 14:11:36;;;;;;;6.05;4.60;;;;;;;;;;5095755;28;20111;-75
2021/06/17 14:14:02;;;;;;;6.78;4.55;;;;;;;;;;5095886;28;20030;-74
2021/06/17 14:16:28;;;;;;;3.92;3.58;;;;;;;;;;5095499;28;20032;-74
2021/06/17 14:18:54;;;;;;;25.88;4.85;;;;;;;;;;5095944;28;20554;-74
2021/06/17 14:21:20;;;;;;;5.50;4.07;;;;;;;;;;5095066;28;20035;-75
2021/06/17 14:23:46;;;;;;;11.43;4.28;;;;;;;;;;5095418;28;20115;-77
2021/06/17 14:26:13;;;;;;;5.68;4.47;;;;;;;;;;5096260;28;20071;-77
2021/06/17 14:28:39;;;;;;;4.53;4.13;;;;;;;;;;5095940;28;20448;-72
2021/06/17 14:31:06;;;;;;;6.72;4.82;;;;;;;;;;5095462;28;20103;-73
2021/06/17 14:33:32;;;;;;;5.68;5.07;;;;;;;;;;5096176;28;20023;-74
2021/06/17 14:35:58;;;;;;;6.15;5.55;;;;;;;;;;5095185;28;20481;-74
2021/06/17 14:38:25;;;;;;;10.57;4.97;;;;;;;;;;5096143;28;20036;-74
2021/06/17 14:40:51;;;;;;;5.05;4.57;;;;;;;;;;5095144;28;20021;-72
2021/06/17 14:43:17;;;;;;;8.63;4.57;;;;;;;;;;5095387;28;20590;-74
2021/06/17 14:45:43;;;;;;;8.48;5.05;;;;;;;;;;5095214;28;20485;-74
2021/06/17 14:48:09;;;;;;;6.10;4.22;;;;;;;;;;5094449;28;20465;-73
2021/06/17 14:50:35;;;;;;;4.55;4.13;;;;;;;;;;5094763;28;20051;-75